Dutch Harbor, AK

3:38 PM AKDT on July 04, 2015 (GMT -0800)
Dutch Harbor | | Change Station
CLOSE
Current Station
Airport
Location: Dutch Harbor,
Elevation: 13 ft
Nearby Weather Stations

Elev 13 ft 53.90 °N, 166.54 °W | Updated 20 minutes ago

Overcast
Overcast
52 °F
Feels Like 52 °F
N
4
Wind Variable Wind from SSW

Today
High -- | Low -- °F
--% Chance of Precip.
Yesterday
High -- | Low -- °F
Precip. -- in
6:45 AM 11:38 PM
Waning Gibbous, 89% visible
Pressure 29.54 in
Visibility 2.0 miles
Clouds Scattered Clouds 200 ft
Overcast 400 ft
Dew Point 48 °F
Humidity 88%
Rainfall 0.14 in
Snow Depth Not available.
UV 3 out of 12
Pollen Not available.
Air Quality Not available.
Flu Activity Not available.
SPECI PADU 042318Z 21003KT 2SM BR SCT002 OVC004 11/09 A2954 RMK AO2 CS

More Conditions Fewer Conditions

Pressure 29.54 in
Visibility 2.0 miles
Clouds Scattered Clouds 200 ft
Overcast 400 ft
Dew Point 48 °F
Humidity 88%
Rainfall 0.14 in
Snow Depth Not available.
UV 3 out of 12
Pollen Not available.
Air Quality Not available.
Flu Activity Not available.
SPECI PADU 042318Z 21003KT 2SM BR SCT002 OVC004 11/09 A2954 RMK AO2 CS

More Conditions Fewer Conditions

10-Day Weather Forecast

×

Almanac

Astronomy

Jul. 04, 2015 Rise Set
Actual Time
Civil Twilight
Nautical Twilight
Astronomical Twilight
Moon
Length of Visible Light
Length of Day
Tomorrow will be .
, % of the Moon is Illuminated

Today's Extremes

State Highs State Lows

Community

WunderPhotos

Upload Photos

1,835,116 photos uploaded!

WunderBlogs® & News

Nearby

Air Quality

  Air Quality AQ Index Pollutant
Not available.

Snow Depth

Station Depth Elevation

Earthquake Activity

City Distance Mag. Time & Date
Minimum magnitude displayed is 2.5.

Coastal Water Temperatures

Place Temperature

Stations

Nearby Weather Stations

Station Location Temp. Windchill Dew Point Humidity Wind Precip. Elev Updated Type